Plum, Texas
Current Conditions -  °F | °C
As of 7:15 PM on Tuesday 27 Jan 2015 (Local Time) from K3T5 Reporting Station
Clear Clear  
Wind Chill: 16°   Ceiling: Unl
Heat Index: 16°   Visibility: 10mi
Dew Point:   Wind: 0mph
Humidity: 63%   Direction: NA
Pressure: 30.12"   Gusts: NA
Location:  29.93°N, 96.97°W
Report Text: K3T5 280115Z AUTO 00000KT 10SM CLR 16/09 A3012 RMK AO2 T01600089
Loading
Personal Weather Stations






























Interactive Weather Map New forecast layout! Learn more

10-Day Weather Forecast

Advertisements
Track Severe Weather on mobile